Climatologie mensuelle pour juin 2005

Valeurs journalières de 0h à 0h
mois : année :
Jour Température Vent Pluie Humidité Pression Ensoleillement (% max) DJUC DJUF
min moy max Vent moyen (rafale max) Secteur
1 11.2 °C 17.4 °C 22.1 °C 2.2 km/h ( 0 km/h ) SSE 0 mm 54 % 1022.1 hPa 0:00 h   (0%) 0.6 0
2 12.2 °C 18.6 °C 24.1 °C 1.3 km/h ( 0 km/h ) SSE 0 mm 52 % 1019.2 hPa 0:00 h   (0%) 0 0.6
3 13.1 °C 20.7 °C 27.8 °C 2.1 km/h ( 0 km/h ) SSE 0 mm 54 % 1016.4 hPa 0:00 h   (0%) 0 2.7
4 16.1 °C 20.5 °C 23.6 °C 2.5 km/h ( 0 km/h ) S 0.5 mm 54 % 1019.5 hPa 0:00 h   (0%) 0 2.5
5 12.5 °C 17.8 °C 21.4 °C 1.1 km/h ( 0 km/h ) SE 0 mm 49 % 1021.9 hPa 0:00 h   (0%) 0.2 0
6 14.9 °C 17.5 °C 20.6 °C 0.5 km/h ( 0 km/h ) SE 0.5 mm 61 % 1021.9 hPa 0:00 h   (0%) 0.5 0
7 13 °C 17.2 °C 20.3 °C 5.2 km/h ( 0 km/h ) ESE 0 mm 58 % 1026.6 hPa 0:00 h   (0%) 0.8 0
8 10.1 °C 14.1 °C 17.8 °C 8 km/h ( 0 km/h ) E 0 mm 50 % 1029.4 hPa 0:00 h   (0%) 3.9 0
9 11.2 °C 14.6 °C 17.6 °C 7.5 km/h ( 0 km/h ) E 0 mm 48 % 1025.1 hPa 0:00 h   (0%) 3.4 0
10 8.1 °C 15 °C 19.6 °C 4.2 km/h ( 0 km/h ) NNE 0 mm 46 % 1020.6 hPa 0:00 h   (0%) 3 0
11 14.3 °C 17.7 °C 23.5 °C 6.7 km/h ( 0 km/h ) N 0 mm 45 % 1014.7 hPa 0:00 h   (0%) 0.3 0
12 21 °C 24 °C 26.1 °C 4.8 km/h ( 0 km/h ) S 0 mm 43 % 1009.1 hPa 0:00 h   (0%) 0 6
13 17.3 °C 19.5 °C 21.9 °C 1.2 km/h ( 0 km/h ) S 16.2 mm 64 % 1010 hPa 0:00 h   (0%) 0 1.5
14 16.3 °C 17.2 °C 18.4 °C 0.2 km/h ( 0 km/h ) OSO 28.6 mm 78 % 1014 hPa 0:00 h   (0%) 0.8 0
15 14.8 °C 19.1 °C 23.6 °C 0.5 km/h ( 0 km/h ) OSO 0 mm 67 % 1020.5 hPa 0:00 h   (0%) 0 1.1
16 15.9 °C 20.8 °C 25.4 °C 1 km/h ( 0 km/h ) SE 0 mm 60 % 1024.1 hPa 0:00 h   (0%) 0 2.8
17 15.2 °C 21.9 °C 27.6 °C 2.4 km/h ( 0 km/h ) NNE 0 mm 58 % 1026.8 hPa 0:00 h   (0%) 0 3.9
18 16.9 °C 23.4 °C 26.6 °C 2.9 km/h ( 0 km/h ) NNE 0 mm 60 % 1022.9 hPa 0:00 h   (0%) 0 5.4
19 17.9 °C 23.3 °C 27.9 °C 1.9 km/h ( 0 km/h ) NNE 0 mm 58 % 1018.3 hPa 0:00 h   (0%) 0 5.3
20 16.1 °C 22.7 °C 28.4 °C 0.8 km/h ( 0 km/h ) SSE 0 mm 54 % 1017 hPa 0:00 h   (0%) 0 4.7
21 17.5 °C 23.5 °C 28.6 °C 0.5 km/h ( 0 km/h ) SSE 0 mm 58 % 1018.6 hPa 0:00 h   (0%) 0 5.5
22 18.3 °C 25.2 °C 31.9 °C 1.1 km/h ( 0 km/h ) SSE 0 mm 55 % 1020.3 hPa 0:00 h   (0%) 0 7.2
23 20.9 °C 25.4 °C 30.3 °C 1 km/h ( 0 km/h ) SSE 0 mm 59 % 1020.1 hPa 0:00 h   (0%) 0 7.4
24 20.4 °C 25.5 °C 32.7 °C 0.4 km/h ( 0 km/h ) SE 1 mm 59 % 1017.9 hPa 0:00 h   (0%) 0 7.5
25 19.8 °C 23 °C 26.6 °C 1.2 km/h ( 0 km/h ) SE 3.2 mm 67 % 1019.9 hPa 0:00 h   (0%) 0 5
26 18.8 °C 24.4 °C 29.5 °C 0.9 km/h ( 0 km/h ) SSO 0 mm 63 % 1022.4 hPa 0:00 h   (0%) 0 6.4
27 19.9 °C 25.7 °C 31 °C 0.9 km/h ( 0 km/h ) SSE 0 mm 59 % 1021.2 hPa 0:00 h   (0%) 0 7.7
28 20.3 °C 26.2 °C 31.5 °C 0.8 km/h ( 0 km/h ) SSE 0 mm 56 % 1017.7 hPa 0:00 h   (0%) 0 8.2
29 20.1 °C 23.7 °C 28.3 °C 1.1 km/h ( 0 km/h ) SSE 19.2 mm 62 % 1013.3 hPa 0:00 h   (0%) 0 5.7
30 19.1 °C 23.1 °C 27.5 °C 1.4 km/h ( 0 km/h ) SSO 0.5 mm 57 % 1014.5 hPa 0:00 h   (0%) 0 5.1
8.1 °C 21.0 °C 32.7 °C 2.2 km/h (0 km/h) 69.7 mm 57 % 1019.5 hPa 0:00 h 13.5 102.2

Température moyenne mensuelle : 21.0 °C
Moyenne des Tn : 16.1 °C
Tn mensuelle : 8.1 °C
Moyenne des Tx : 25.4 °C
Tx mensuelle : 32.7 °C

Vent moyen pour le mois : 2.2 km/h de secteur
Rafale maxi : 0 km/h

Pluviometrie mensuelle : 69.7 mm avec un maximum journalier de 28.6 mm

Nombre de jours :

  • avec gelée : 0
  • avec forte gelée (<=-5): 0
  • sans dégel : 0
  • avec chaleur (>=30): 5
  • avec canicule (>=35): 0
  • avec pluie : 8
  • avec plus de 1mm : 5
  • avec plus de 5mm : 3
  • avec plus de 10mm : 3